createdAt,value
2023-03-10T00:01:31.354Z,98889.52
2023-03-10T00:04:17.124Z,98892.19
2023-03-10T00:06:47.018Z,98894.42
2023-03-10T00:09:15.504Z,98886.73
2023-03-10T00:12:02.504Z,98887.59
2023-03-10T00:14:53.651Z,98903.55
2023-03-10T00:17:37.140Z,98910.73
2023-03-10T00:20:12.764Z,98911.60
2023-03-10T00:22:49.912Z,98920.17
2023-03-10T00:25:21.048Z,98920.38
2023-03-10T00:27:52.813Z,98917.98
2023-03-10T00:30:24.687Z,98919.90
2023-03-10T00:32:54.207Z,98922.80
2023-03-10T00:35:22.929Z,98927.69
2023-03-10T00:37:53.302Z,98931.29
2023-03-10T00:40:23.025Z,98934.55
2023-03-10T00:43:00.612Z,98936.09
2023-03-10T00:45:29.208Z,98945.92
2023-03-10T00:48:00.534Z,98949.89
2023-03-10T00:50:29.133Z,98956.68
2023-03-10T00:53:02.247Z,98967.44
2023-03-10T00:55:30.720Z,98981.26
2023-03-10T00:57:59.134Z,98988.01
2023-03-10T01:00:28.105Z,98998.73
2023-03-10T01:02:56.899Z,99013.39
2023-03-10T01:05:29.374Z,99018.05
2023-03-10T01:07:57.760Z,99029.13
2023-03-10T01:10:27.368Z,99042.15
2023-03-10T01:12:55.956Z,99047.96
2023-03-10T01:15:25.242Z,99054.89
2023-03-10T01:17:53.610Z,99056.40
2023-03-10T01:20:22.505Z,99057.27
2023-03-10T01:22:50.781Z,99062.05
2023-03-10T01:25:19.295Z,99065.42
2023-03-10T01:27:47.955Z,99077.55
2023-03-10T01:30:16.270Z,99084.02
2023-03-10T01:32:46.523Z,99094.27
2023-03-10T01:35:15.758Z,99101.38
2023-03-10T01:37:45.059Z,99108.85
2023-03-10T01:40:16.720Z,99109.98
2023-03-10T01:42:46.192Z,99110.15
2023-03-10T01:45:14.509Z,99123.39
2023-03-10T01:47:43.398Z,99124.44
2023-03-10T01:50:14.229Z,99129.30
2023-03-10T01:52:44.105Z,99135.98
2023-03-10T01:55:13.152Z,99145.50
2023-03-10T01:57:44.495Z,99151.36
2023-03-10T02:00:16.471Z,99158.09
2023-03-10T02:02:59.383Z,99161.48
2023-03-10T02:05:28.179Z,99162.81
2023-03-10T02:07:56.866Z,99160.23
2023-03-10T02:10:26.070Z,99169.98
2023-03-10T02:12:54.442Z,99175.27
2023-03-10T02:15:23.341Z,99179.38
2023-03-10T02:17:52.363Z,99183.25
2023-03-10T02:20:34.539Z,99199.16
2023-03-10T02:23:02.925Z,99205.17
2023-03-10T02:25:37.356Z,99202.52
2023-03-10T02:28:05.729Z,99211.77
2023-03-10T02:30:37.530Z,99218.07
2023-03-10T02:33:10.130Z,99227.80
2023-03-10T02:35:39.392Z,99237.81
2023-03-10T02:38:11.033Z,99250.58
2023-03-10T02:40:48.223Z,99263.27
2023-03-10T02:43:32.484Z,99265.16
2023-03-10T02:46:06.932Z,99264.24
2023-03-10T02:48:37.799Z,99268.53
2023-03-10T02:51:22.331Z,99275.13
2023-03-10T02:53:50.604Z,99276.67
2023-03-10T02:56:19.233Z,99282.77
2023-03-10T02:58:48.352Z,99287.46
2023-03-10T03:01:19.174Z,99286.64
2023-03-10T03:03:47.716Z,99294.01
2023-03-10T03:06:16.363Z,99292.58
2023-03-10T03:08:45.769Z,99292.04
2023-03-10T03:11:16.644Z,99282.91
2023-03-10T03:13:45.741Z,99288.15
2023-03-10T03:16:14.846Z,99288.77
2023-03-10T03:18:43.802Z,99298.34
2023-03-10T03:21:17.602Z,99298.88
2023-03-10T03:23:47.166Z,99307.13
2023-03-10T03:26:19.421Z,99314.06
2023-03-10T03:28:49.649Z,99322.08
2023-03-10T03:31:24.080Z,99320.03
2023-03-10T03:34:01.352Z,99326.89
2023-03-10T03:36:30.851Z,99333.06
2023-03-10T03:38:59.344Z,99341.38
2023-03-10T03:41:30.491Z,99349.38
2023-03-10T03:43:59.149Z,99350.34
2023-03-10T03:46:29.500Z,99355.08
2023-03-10T03:49:00.420Z,99359.42
2023-03-10T03:51:31.458Z,99365.89
2023-03-10T03:54:00.761Z,99368.38
2023-03-10T03:56:29.964Z,99375.09
2023-03-10T03:58:58.650Z,99376.27
2023-03-10T04:01:27.545Z,99384.42
2023-03-10T04:03:56.998Z,99388.38
2023-03-10T04:06:25.855Z,99391.38
2023-03-10T04:08:54.631Z,99392.23
2023-03-10T04:11:24.361Z,99392.98
2023-03-10T04:13:52.634Z,99394.21
2023-03-10T04:16:21.430Z,99403.39
2023-03-10T04:18:50.209Z,99405.36
2023-03-10T04:21:18.993Z,99407.06
2023-03-10T04:23:48.405Z,99407.59
2023-03-10T04:26:20.672Z,99410.16
2023-03-10T04:28:50.177Z,99418.11
2023-03-10T04:31:20.564Z,99415.95
2023-03-10T04:33:50.642Z,99420.18
2023-03-10T04:36:20.421Z,99423.14
2023-03-10T04:38:53.332Z,99420.14
2023-03-10T04:41:24.703Z,99413.60
2023-03-10T04:43:56.107Z,99409.09
2023-03-10T04:46:24.908Z,99414.13
2023-03-10T04:48:56.194Z,99418.23
2023-03-10T04:51:24.769Z,99421.52
2023-03-10T04:53:54.373Z,99421.64
2023-03-10T04:56:22.769Z,99425.80
2023-03-10T04:58:53.494Z,99427.45
2023-03-10T05:01:43.969Z,99428.84
2023-03-10T05:04:26.509Z,99431.45
2023-03-10T05:06:55.290Z,99426.76
2023-03-10T05:09:30.850Z,99431.27
2023-03-10T05:12:21.437Z,99441.70
2023-03-10T05:14:59.374Z,99452.70
2023-03-10T05:17:28.878Z,99459.20
2023-03-10T05:20:00.300Z,99457.99
2023-03-10T05:22:30.949Z,99466.39
2023-03-10T05:25:11.202Z,99467.20
2023-03-10T05:27:41.114Z,99462.34
2023-03-10T05:30:11.782Z,99466.20
2023-03-10T05:32:40.258Z,99475.14
2023-03-10T05:35:09.830Z,99472.09
2023-03-10T05:37:42.289Z,99476.16
2023-03-10T05:40:16.646Z,99475.56
2023-03-10T05:42:45.045Z,99484.87
2023-03-10T05:45:14.045Z,99492.70
2023-03-10T05:47:48.480Z,99506.56
2023-03-10T05:50:18.463Z,99521.52
2023-03-10T05:52:50.423Z,99531.30
2023-03-10T05:55:20.480Z,99540.56
2023-03-10T05:57:49.123Z,99547.41
2023-03-10T06:00:21.136Z,99548.81
2023-03-10T06:02:56.204Z,99553.84
2023-03-10T06:05:27.687Z,99558.45
2023-03-10T06:07:56.174Z,99557.53
2023-03-10T06:10:24.653Z,99554.05
2023-03-10T06:12:56.722Z,99553.73
2023-03-10T06:15:27.049Z,99545.33
2023-03-10T06:17:55.273Z,99542.23
2023-03-10T06:20:25.552Z,99545.35
2023-03-10T06:22:54.752Z,99551.63
2023-03-10T06:25:24.004Z,99556.81
2023-03-10T06:27:52.236Z,99555.33
2023-03-10T06:30:21.652Z,99560.44
2023-03-10T06:32:51.269Z,99559.26
2023-03-10T06:35:20.165Z,99560.05
2023-03-10T06:37:56.520Z,99562.88
2023-03-10T06:40:24.996Z,99568.05
2023-03-10T06:42:53.387Z,99570.64
2023-03-10T06:45:22.476Z,99566.77
2023-03-10T06:47:50.821Z,99566.27
2023-03-10T06:50:19.586Z,99560.41
2023-03-10T06:52:52.743Z,99551.61
2023-03-10T06:55:21.025Z,99553.35
2023-03-10T06:57:49.402Z,99551.61
2023-03-10T07:00:18.552Z,99553.27
2023-03-10T07:02:47.286Z,99549.33
2023-03-10T07:05:15.466Z,99549.59
2023-03-10T07:07:44.020Z,99546.66
2023-03-10T07:10:17.148Z,99544.25
2023-03-10T07:12:46.149Z,99548.13
2023-03-10T07:15:16.253Z,99542.23
2023-03-10T07:17:47.264Z,99539.23
2023-03-10T07:20:15.578Z,99543.87
2023-03-10T07:22:44.735Z,99540.30
2023-03-10T07:25:13.674Z,99540.16
2023-03-10T07:27:42.049Z,99540.09
2023-03-10T07:30:11.746Z,99549.08
2023-03-10T07:32:40.485Z,99557.65
2023-03-10T07:35:09.242Z,99562.81
2023-03-10T07:37:39.401Z,99572.38
2023-03-10T07:40:08.894Z,99570.31
2023-03-10T07:42:37.149Z,99572.82
2023-03-10T07:45:06.640Z,99580.03
2023-03-10T07:47:35.019Z,99583.25
2023-03-10T07:50:03.529Z,99605.48
2023-03-10T07:52:33.147Z,99625.15
2023-03-10T07:55:01.817Z,99617.98
2023-03-10T07:57:30.276Z,99616.11
2023-03-10T07:59:58.690Z,99623.03
2023-03-10T08:02:27.076Z,99624.61
2023-03-10T08:04:55.852Z,99635.63
2023-03-10T08:07:32.189Z,99630.73
2023-03-10T08:10:00.525Z,99612.25
2023-03-10T08:12:29.807Z,99618.75
2023-03-10T08:14:58.699Z,99604.55
2023-03-10T08:17:31.190Z,99589.69
2023-03-10T08:20:00.136Z,99596.91
2023-03-10T08:22:28.563Z,99590.31
2023-03-10T08:24:57.057Z,99590.04
2023-03-10T08:27:28.878Z,99589.79
2023-03-10T08:30:00.555Z,99590.60
2023-03-10T08:32:29.154Z,99591.91
2023-03-10T08:34:57.626Z,99602.43
2023-03-10T08:37:26.108Z,99606.70
2023-03-10T08:39:56.845Z,99591.64
2023-03-10T08:42:27.198Z,99587.41
2023-03-10T08:44:56.393Z,99585.88
2023-03-10T08:47:28.839Z,99582.20
2023-03-10T08:49:58.978Z,99574.83
2023-03-10T08:52:27.574Z,99554.95
2023-03-10T08:54:59.460Z,99554.57
2023-03-10T08:57:28.223Z,99560.49
2023-03-10T08:59:56.710Z,99556.05
2023-03-10T09:02:25.701Z,99542.34
2023-03-10T09:04:54.296Z,99549.92
2023-03-10T09:07:22.674Z,99561.94
2023-03-10T09:09:51.653Z,99555.06
2023-03-10T09:12:20.810Z,99565.16
2023-03-10T09:14:49.360Z,99577.02
2023-03-10T09:17:18.466Z,99576.96
2023-03-10T09:19:47.224Z,99582.31
2023-03-10T09:22:15.606Z,99584.30
2023-03-10T09:24:44.598Z,99583.11
2023-03-10T09:27:12.907Z,99575.81
2023-03-10T09:29:43.391Z,99579.81
2023-03-10T09:32:12.585Z,99586.09
2023-03-10T09:34:41.225Z,99584.58
2023-03-10T09:37:15.443Z,99583.88
2023-03-10T09:39:44.619Z,99580.36
2023-03-10T09:42:38.272Z,99589.77
2023-03-10T09:45:24.291Z,99592.14
2023-03-10T09:48:34.065Z,99589.36
2023-03-10T09:51:06.118Z,99589.88
2023-03-10T09:53:54.472Z,99588.77
2023-03-10T09:56:30.014Z,99590.60
2023-03-10T09:59:11.570Z,99590.94
2023-03-10T10:01:44.602Z,99588.30
2023-03-10T10:04:18.690Z,99592.88
2023-03-10T10:06:48.824Z,99592.98
2023-03-10T10:09:36.055Z,99592.38
2023-03-10T10:12:14.254Z,99598.23
2023-03-10T10:14:55.016Z,99596.20
2023-03-10T10:17:55.058Z,99592.59
2023-03-10T10:20:42.630Z,99588.64
2023-03-10T10:23:24.487Z,99579.28
2023-03-10T10:25:53.610Z,99568.52
2023-03-10T10:28:43.988Z,99551.15
2023-03-10T10:31:17.723Z,99554.86
2023-03-10T10:33:57.046Z,99557.45
2023-03-10T10:36:30.413Z,99544.86
2023-03-10T10:38:59.538Z,99538.80
2023-03-10T10:41:30.158Z,99549.16
2023-03-10T10:44:07.124Z,99561.27
2023-03-10T10:46:37.362Z,99556.75
2023-03-10T10:49:26.322Z,99559.99
2023-03-10T10:52:06.105Z,99556.88
2023-03-10T10:54:39.379Z,99550.33
2023-03-10T10:57:19.631Z,99546.90
2023-03-10T10:59:48.626Z,99536.25
2023-03-10T11:02:24.516Z,99525.71
2023-03-10T11:04:53.132Z,99507.95
2023-03-10T11:07:26.058Z,99501.73
2023-03-10T11:10:00.102Z,99509.15
2023-03-10T11:12:34.457Z,99513.36
2023-03-10T11:15:25.953Z,99506.29
2023-03-10T11:18:13.366Z,99499.96
2023-03-10T11:20:51.966Z,99497.17
2023-03-10T11:23:30.055Z,99498.14
2023-03-10T11:26:01.957Z,99507.69
2023-03-10T11:28:40.165Z,99514.54
2023-03-10T11:31:33.698Z,99524.35
2023-03-10T11:34:04.181Z,99513.55
2023-03-10T11:36:57.457Z,99507.69
2023-03-10T11:39:48.730Z,99500.59
2023-03-10T11:42:35.467Z,99505.05
2023-03-10T11:45:22.253Z,99503.14
2023-03-10T11:47:56.435Z,99504.39
2023-03-10T11:50:39.800Z,99496.16
2023-03-10T11:53:17.973Z,99487.00
2023-03-10T11:55:47.120Z,99490.13
2023-03-10T11:58:22.577Z,99504.14
2023-03-10T12:00:54.024Z,99512.97
2023-03-10T12:03:41.501Z,99498.45
2023-03-10T12:06:13.848Z,99502.02
2023-03-10T12:08:42.213Z,99508.87
2023-03-10T12:11:19.422Z,99504.96
2023-03-10T12:13:50.424Z,99506.82
2023-03-10T12:16:22.969Z,99502.02
2023-03-10T12:18:54.771Z,99499.66
2023-03-10T12:21:28.818Z,99504.45
2023-03-10T12:24:01.744Z,99504.43
2023-03-10T12:27:00.785Z,99499.90
2023-03-10T12:29:34.075Z,99495.23
2023-03-10T12:32:02.446Z,99490.84
2023-03-10T12:34:33.930Z,99481.00
2023-03-10T12:37:09.248Z,99480.70
2023-03-10T12:39:43.719Z,99474.95
2023-03-10T12:42:31.714Z,99476.33
2023-03-10T12:45:03.159Z,99483.95
2023-03-10T12:47:35.022Z,99489.05
2023-03-10T12:50:08.523Z,99496.63
2023-03-10T12:53:01.100Z,99494.02
2023-03-10T12:55:31.812Z,99490.58
2023-03-10T12:58:22.858Z,99489.88
2023-03-10T13:01:02.154Z,99493.25
2023-03-10T13:03:54.660Z,99485.85
2023-03-10T13:06:46.688Z,99484.65
2023-03-10T13:09:27.635Z,99479.80
2023-03-10T13:12:30.457Z,99479.31
2023-03-10T13:15:31.661Z,99473.98
2023-03-10T13:18:31.872Z,99464.84
2023-03-10T13:21:11.009Z,99454.36
2023-03-10T13:23:49.514Z,99449.80
2023-03-10T13:26:29.596Z,99444.55
2023-03-10T13:29:32.819Z,99440.59
2023-03-10T13:32:08.917Z,99439.13
2023-03-10T13:35:04.329Z,99442.73
2023-03-10T13:37:47.908Z,99443.73
2023-03-10T13:40:46.496Z,99437.77
2023-03-10T13:44:05.093Z,99432.34
2023-03-10T13:47:00.160Z,99427.70
2023-03-10T13:49:41.489Z,99428.38
2023-03-10T13:52:39.951Z,99426.13
2023-03-10T13:55:42.842Z,99428.38
2023-03-10T13:58:28.518Z,99422.83
2023-03-10T14:01:09.852Z,99419.96
2023-03-10T14:04:02.539Z,99425.35
2023-03-10T14:06:51.135Z,99417.62
2023-03-10T14:09:29.123Z,99414.26
2023-03-10T14:12:06.706Z,99411.27
2023-03-10T14:14:51.974Z,99416.67
2023-03-10T14:17:48.428Z,99415.17
2023-03-10T14:21:23.157Z,99411.08
2023-03-10T14:23:52.160Z,99410.91
2023-03-10T14:26:20.439Z,99408.67
2023-03-10T14:28:49.118Z,99409.61
2023-03-10T14:31:21.567Z,99409.30
2023-03-10T14:33:50.713Z,99406.23
2023-03-10T14:36:19.551Z,99407.04
2023-03-10T14:38:56.781Z,99402.59
2023-03-10T14:41:29.047Z,99397.46
2023-03-10T14:43:58.669Z,99392.15
2023-03-10T14:46:27.965Z,99389.62
2023-03-10T14:48:56.544Z,99390.18
2023-03-10T14:51:35.161Z,99388.75
2023-03-10T14:54:04.680Z,99394.88
2023-03-10T14:56:34.389Z,99388.20
2023-03-10T14:59:03.280Z,99386.11
2023-03-10T15:01:31.572Z,99376.23
2023-03-10T15:04:16.139Z,99378.23
2023-03-10T15:06:44.711Z,99369.66
2023-03-10T15:09:13.392Z,99366.81
2023-03-10T15:11:42.082Z,99362.27
2023-03-10T15:14:23.289Z,99357.88
2023-03-10T15:17:03.317Z,99352.17
2023-03-10T15:19:55.110Z,99346.75
2023-03-10T15:22:23.432Z,99343.31
2023-03-10T15:24:51.722Z,99339.48
2023-03-10T15:27:20.086Z,99344.54
2023-03-10T15:29:50.627Z,99343.73
2023-03-10T15:32:19.219Z,99356.48
2023-03-10T15:34:47.587Z,99356.92
2023-03-10T15:37:15.831Z,99366.16
2023-03-10T15:39:44.225Z,99368.84
2023-03-10T15:42:14.266Z,99370.26
2023-03-10T15:44:42.856Z,99374.25
2023-03-10T15:47:13.268Z,99374.62
2023-03-10T15:49:42.586Z,99373.83
2023-03-10T15:52:11.888Z,99373.77
2023-03-10T15:54:41.128Z,99377.09
2023-03-10T15:57:09.889Z,99376.73
2023-03-10T15:59:38.576Z,99374.72
2023-03-10T16:02:07.119Z,99379.43
2023-03-10T16:04:36.825Z,99379.20
2023-03-10T16:07:07.501Z,99381.11
2023-03-10T16:09:36.189Z,99381.02
2023-03-10T16:12:06.245Z,99379.29
2023-03-10T16:14:38.686Z,99374.91
2023-03-10T16:17:08.414Z,99371.52
2023-03-10T16:19:36.773Z,99373.94
2023-03-10T16:22:07.718Z,99378.67
2023-03-10T16:24:36.504Z,99383.45
2023-03-10T16:27:04.885Z,99376.75
2023-03-10T16:29:33.778Z,99376.84
2023-03-10T16:32:02.585Z,99379.53
2023-03-10T16:34:40.889Z,99377.81
2023-03-10T16:37:11.764Z,99377.09
2023-03-10T16:39:40.923Z,99376.29
2023-03-10T16:42:09.403Z,99377.98
2023-03-10T16:44:38.604Z,99377.85
2023-03-10T16:47:06.985Z,99378.26
2023-03-10T16:49:36.697Z,99382.52
2023-03-10T16:52:10.803Z,99383.35
2023-03-10T16:54:42.183Z,99388.58
2023-03-10T16:57:12.488Z,99391.00
2023-03-10T16:59:42.649Z,99390.45
2023-03-10T17:02:15.655Z,99386.51
2023-03-10T17:04:45.620Z,99379.88
2023-03-10T17:07:14.424Z,99374.77
2023-03-10T17:09:43.009Z,99372.83
2023-03-10T17:12:12.812Z,99363.09
2023-03-10T17:14:41.805Z,99361.29
2023-03-10T17:17:10.295Z,99351.30
2023-03-10T17:19:38.773Z,99350.98
2023-03-10T17:22:07.063Z,99350.64
2023-03-10T17:24:36.480Z,99350.40
2023-03-10T17:27:07.625Z,99351.55
2023-03-10T17:29:36.293Z,99357.52
2023-03-10T17:32:07.361Z,99359.15
2023-03-10T17:34:36.979Z,99353.67
2023-03-10T17:37:05.555Z,99354.13
2023-03-10T17:39:35.388Z,99358.02
2023-03-10T17:42:04.668Z,99359.63
2023-03-10T17:44:34.280Z,99354.21
2023-03-10T17:47:03.164Z,99353.27
2023-03-10T17:49:33.795Z,99349.27
2023-03-10T17:52:02.372Z,99346.98
2023-03-10T17:54:31.092Z,99349.95
2023-03-10T17:56:59.851Z,99342.23
2023-03-10T17:59:29.051Z,99333.95
2023-03-10T18:01:57.423Z,99328.21
2023-03-10T18:04:29.955Z,99329.02
2023-03-10T18:07:03.698Z,99322.04
2023-03-10T18:09:51.968Z,99325.04
2023-03-10T18:12:24.468Z,99319.59
2023-03-10T18:14:54.071Z,99321.15
2023-03-10T18:17:22.762Z,99321.20
2023-03-10T18:19:52.400Z,99315.73
2023-03-10T18:22:22.093Z,99320.64
2023-03-10T18:24:50.351Z,99323.11
2023-03-10T18:27:18.733Z,99326.52
2023-03-10T18:29:47.725Z,99322.83
2023-03-10T18:32:19.008Z,99323.54
2023-03-10T18:34:49.198Z,99316.75
2023-03-10T18:37:17.611Z,99318.13
2023-03-10T18:39:51.820Z,99314.84
2023-03-10T18:42:22.068Z,99312.42
2023-03-10T18:44:50.948Z,99311.23
2023-03-10T18:47:19.859Z,99311.61
2023-03-10T18:49:50.135Z,99305.92
2023-03-10T18:52:18.515Z,99303.23
2023-03-10T18:54:47.230Z,99304.20
2023-03-10T18:57:16.088Z,99300.89
2023-03-10T18:59:44.989Z,99300.21
2023-03-10T19:02:17.572Z,99297.52
2023-03-10T19:04:47.980Z,99297.40
2023-03-10T19:07:17.806Z,99291.66
2023-03-10T19:09:47.363Z,99289.84
2023-03-10T19:12:16.409Z,99287.30
2023-03-10T19:14:46.332Z,99282.91
2023-03-10T19:17:14.707Z,99280.52
2023-03-10T19:19:46.772Z,99271.67
2023-03-10T19:22:15.154Z,99270.67
2023-03-10T19:24:43.841Z,99269.06
2023-03-10T19:27:13.149Z,99262.08
2023-03-10T19:29:53.293Z,99258.58
2023-03-10T19:32:26.353Z,99261.95
2023-03-10T19:34:57.134Z,99259.73
2023-03-10T19:37:30.511Z,99254.21
2023-03-10T19:39:59.526Z,99244.50
2023-03-10T19:42:28.010Z,99238.64
2023-03-10T19:44:56.698Z,99234.21
2023-03-10T19:47:25.181Z,99234.81
2023-03-10T19:50:00.533Z,99236.41
2023-03-10T19:52:29.429Z,99235.44
2023-03-10T19:54:57.839Z,99233.67
2023-03-10T19:57:26.287Z,99234.48
2023-03-10T19:59:55.586Z,99231.42
2023-03-10T20:02:24.991Z,99225.70
2023-03-10T20:04:53.274Z,99225.55
2023-03-10T20:07:21.766Z,99224.09
2023-03-10T20:09:50.771Z,99224.11
2023-03-10T20:12:19.440Z,99225.20
2023-03-10T20:14:47.946Z,99219.05
2023-03-10T20:17:18.771Z,99218.66
2023-03-10T20:19:48.778Z,99212.44
2023-03-10T20:22:19.428Z,99212.71
2023-03-10T20:24:50.352Z,99215.27
2023-03-10T20:27:23.348Z,99212.36
2023-03-10T20:29:56.738Z,99213.58
2023-03-10T20:32:28.001Z,99210.14
2023-03-10T20:34:56.470Z,99208.38
2023-03-10T20:37:24.661Z,99205.41
2023-03-10T20:39:54.233Z,99200.96
2023-03-10T20:42:22.535Z,99200.84
2023-03-10T20:44:50.918Z,99202.30
2023-03-10T20:47:19.195Z,99198.84
2023-03-10T20:49:47.779Z,99199.55
2023-03-10T20:52:16.675Z,99193.33
2023-03-10T20:54:45.776Z,99193.56
2023-03-10T20:57:14.159Z,99191.21
2023-03-10T20:59:46.842Z,99184.69
2023-03-10T21:02:16.447Z,99182.70
2023-03-10T21:04:45.119Z,99179.87
2023-03-10T21:07:13.512Z,99180.36
2023-03-10T21:09:42.604Z,99180.80
2023-03-10T21:12:12.530Z,99179.04
2023-03-10T21:14:47.562Z,99176.75
2023-03-10T21:17:15.944Z,99169.85
2023-03-10T21:19:44.237Z,99173.38
2023-03-10T21:22:13.656Z,99169.86
2023-03-10T21:24:41.926Z,99166.66
2023-03-10T21:27:10.397Z,99166.25
2023-03-10T21:29:40.231Z,99166.14
2023-03-10T21:32:09.075Z,99161.25
2023-03-10T21:34:37.419Z,99157.26
2023-03-10T21:37:05.730Z,99156.38
2023-03-10T21:39:36.088Z,99156.42
2023-03-10T21:42:06.734Z,99150.85
2023-03-10T21:44:35.554Z,99147.71
2023-03-10T21:47:04.004Z,99148.86
2023-03-10T21:49:37.418Z,99146.79
2023-03-10T21:52:06.832Z,99139.08
2023-03-10T21:54:35.101Z,99137.40
2023-03-10T21:57:03.484Z,99133.66
2023-03-10T21:59:32.181Z,99127.70
2023-03-10T22:02:00.993Z,99126.60
2023-03-10T22:04:30.468Z,99122.96
2023-03-10T22:07:05.643Z,99119.84
2023-03-10T22:09:49.239Z,99116.38
2023-03-10T22:12:19.125Z,99115.52
2023-03-10T22:14:50.601Z,99111.66
2023-03-10T22:17:23.023Z,99110.52
2023-03-10T22:20:00.116Z,99114.27
2023-03-10T22:22:30.239Z,99113.27
2023-03-10T22:25:09.381Z,99113.16
2023-03-10T22:27:46.261Z,99109.23
2023-03-10T22:30:22.944Z,99108.34
2023-03-10T22:33:12.755Z,99107.13
2023-03-10T22:36:19.484Z,99104.11
2023-03-10T22:39:22.748Z,99102.54
2023-03-10T22:50:04.692Z,99096.18
2023-03-10T22:52:33.779Z,99093.85
2023-03-10T22:55:02.290Z,99095.12
2023-03-10T22:57:30.676Z,99097.30
2023-03-10T22:59:59.030Z,99098.95
2023-03-10T23:02:27.686Z,99100.32
2023-03-10T23:04:56.103Z,99097.40
2023-03-10T23:07:25.158Z,99090.45
2023-03-10T23:09:53.478Z,99090.98
2023-03-10T23:12:22.063Z,99086.73
2023-03-10T23:14:51.061Z,99093.88
2023-03-10T23:17:20.262Z,99087.02
2023-03-10T23:19:51.509Z,99083.58
2023-03-10T23:22:20.608Z,99078.26
2023-03-10T23:24:50.024Z,99077.91
2023-03-10T23:27:18.926Z,99071.80
2023-03-10T23:29:47.259Z,99071.64
2023-03-10T23:32:15.738Z,99067.48
2023-03-10T23:34:44.522Z,99064.29
2023-03-10T23:37:12.845Z,99068.46
2023-03-10T23:39:42.249Z,99068.15
2023-03-10T23:42:12.203Z,99066.10
2023-03-10T23:44:40.744Z,99062.29
2023-03-10T23:47:09.352Z,99062.36
2023-03-10T23:49:37.669Z,99058.29
2023-03-10T23:52:06.200Z,99052.91
2023-03-10T23:54:35.497Z,99045.65
2023-03-10T23:57:04.952Z,99047.92
2023-03-10T23:59:36.156Z,99040.64
